createdAt,value
2022-08-30T00:00:47.398Z,68.03
2022-08-30T00:02:50.498Z,68.08
2022-08-30T00:04:55.178Z,67.91
2022-08-30T00:06:57.948Z,70.13
2022-08-30T00:09:00.821Z,76.35
2022-08-30T00:11:05.496Z,78.53
2022-08-30T00:13:09.222Z,76.42
2022-08-30T00:15:14.777Z,74.87
2022-08-30T00:17:19.302Z,72.70
2022-08-30T00:19:22.073Z,70.38
2022-08-30T00:21:27.091Z,69.17
2022-08-30T00:23:29.880Z,69.21
2022-08-30T00:25:32.768Z,68.62
2022-08-30T00:27:35.601Z,68.31
2022-08-30T00:29:38.496Z,67.66
2022-08-30T00:31:41.320Z,67.20
2022-08-30T00:33:44.121Z,67.39
2022-08-30T00:35:46.872Z,67.25
2022-08-30T00:37:51.095Z,66.73
2022-08-30T00:39:53.916Z,66.59
2022-08-30T00:41:56.711Z,66.31
2022-08-30T00:44:00.888Z,66.20
2022-08-30T00:46:07.653Z,66.96
2022-08-30T00:48:10.711Z,66.98
2022-08-30T00:50:17.316Z,69.27
2022-08-30T00:52:23.363Z,71.15
2022-08-30T00:54:28.495Z,70.77
2022-08-30T00:56:32.377Z,69.71
2022-08-30T00:58:38.208Z,69.08
2022-08-30T01:00:41.358Z,69.46
2022-08-30T01:02:44.393Z,75.19
2022-08-30T01:04:51.805Z,76.98
2022-08-30T01:06:55.144Z,74.83
2022-08-30T01:08:58.802Z,72.99
2022-08-30T01:11:04.632Z,72.72
2022-08-30T01:13:07.997Z,81.91
2022-08-30T01:15:14.389Z,92.71
2022-08-30T01:17:18.150Z,87.90
2022-08-30T01:19:35.492Z,84.23
2022-08-30T01:21:46.983Z,80.38
2022-08-30T01:23:54.738Z,77.91
2022-08-30T01:25:57.608Z,77.18
2022-08-30T01:28:05.093Z,78.39
2022-08-30T01:30:08.973Z,77.06
2022-08-30T01:32:20.971Z,76.08
2022-08-30T01:34:24.406Z,75.48
2022-08-30T01:36:27.352Z,74.09
2022-08-30T01:38:34.678Z,73.41
2022-08-30T01:40:38.892Z,73.28
2022-08-30T01:42:42.137Z,73.33
2022-08-30T01:44:45.016Z,73.39
2022-08-30T01:46:48.932Z,72.52
2022-08-30T01:48:54.304Z,72.31
2022-08-30T01:50:57.230Z,71.32
2022-08-30T01:53:00.155Z,71.60
2022-08-30T01:55:03.540Z,71.73
2022-08-30T01:57:10.924Z,72.18
2022-08-30T01:59:14.314Z,71.84
2022-08-30T02:01:19.941Z,74.95
2022-08-30T02:03:23.031Z,78.58
2022-08-30T02:05:26.765Z,78.21
2022-08-30T02:07:29.714Z,82.91
2022-08-30T02:09:32.578Z,90.40
2022-08-30T02:11:35.383Z,90.46
2022-08-30T02:13:40.856Z,93.31
2022-08-30T02:15:43.715Z,88.83
2022-08-30T02:17:46.434Z,83.81
2022-08-30T02:19:49.464Z,82.65
2022-08-30T02:21:52.309Z,80.52
2022-08-30T02:23:55.421Z,78.82
2022-08-30T02:25:58.401Z,78.32
2022-08-30T02:28:01.252Z,77.45
2022-08-30T02:30:07.087Z,76.88
2022-08-30T02:32:10.049Z,77.47
2022-08-30T02:34:12.923Z,77.19
2022-08-30T02:36:15.739Z,77.33
2022-08-30T02:38:20.183Z,76.09
2022-08-30T02:40:23.294Z,75.81
2022-08-30T02:42:26.058Z,74.76
2022-08-30T02:44:28.871Z,74.00
2022-08-30T02:46:33.411Z,73.65
2022-08-30T02:48:37.558Z,74.88
2022-08-30T02:50:41.428Z,75.38
2022-08-30T02:52:45.290Z,75.34
2022-08-30T02:54:51.511Z,75.16
2022-08-30T02:56:54.235Z,74.77
2022-08-30T02:58:56.979Z,74.38
2022-08-30T03:00:59.810Z,74.08
2022-08-30T03:03:04.391Z,74.50
2022-08-30T03:05:07.814Z,74.59
2022-08-30T03:07:10.654Z,75.25
2022-08-30T03:09:13.440Z,74.75
2022-08-30T03:11:16.385Z,74.55
2022-08-30T03:13:19.218Z,74.60
2022-08-30T03:15:25.280Z,74.32
2022-08-30T03:17:28.085Z,74.10
2022-08-30T03:19:32.288Z,74.13
2022-08-30T03:21:37.091Z,76.51
2022-08-30T03:23:40.808Z,76.04
2022-08-30T03:25:43.901Z,75.43
2022-08-30T03:27:46.613Z,77.29
2022-08-30T03:29:49.368Z,77.20
2022-08-30T03:31:53.746Z,79.23
2022-08-30T03:33:56.841Z,89.18
2022-08-30T03:36:01.055Z,89.67
2022-08-30T03:38:03.939Z,92.78
2022-08-30T03:40:09.087Z,93.47
2022-08-30T03:42:13.550Z,89.78
2022-08-30T03:44:16.335Z,100.00
2022-08-30T03:46:19.071Z,100.00
2022-08-30T03:48:27.565Z,100.00
2022-08-30T03:50:31.406Z,100.00
2022-08-30T03:52:35.633Z,96.12
2022-08-30T03:54:40.142Z,91.57
2022-08-30T03:56:43.210Z,87.83
2022-08-30T03:58:46.400Z,87.46
2022-08-30T04:00:49.225Z,87.91
2022-08-30T04:02:52.083Z,85.69
2022-08-30T04:04:55.081Z,83.64
2022-08-30T04:06:58.051Z,81.89
2022-08-30T04:09:02.147Z,80.58
2022-08-30T04:11:05.249Z,79.78
2022-08-30T04:13:08.122Z,78.59
2022-08-30T04:15:12.625Z,78.88
2022-08-30T04:17:15.392Z,78.69
2022-08-30T04:19:18.731Z,78.19
2022-08-30T04:21:21.522Z,79.34
2022-08-30T04:23:24.475Z,82.51
2022-08-30T04:25:28.643Z,87.99
2022-08-30T04:27:31.369Z,84.44
2022-08-30T04:29:35.026Z,80.95
2022-08-30T04:31:37.895Z,79.99
2022-08-30T04:33:41.786Z,80.49
2022-08-30T04:35:46.098Z,83.61
2022-08-30T04:37:48.782Z,89.72
2022-08-30T04:39:51.683Z,90.30
2022-08-30T04:41:57.486Z,91.37
2022-08-30T04:44:03.506Z,92.34
2022-08-30T04:46:08.421Z,94.92
2022-08-30T04:48:11.399Z,96.46
2022-08-30T04:50:17.413Z,96.91
2022-08-30T04:52:20.312Z,96.33
2022-08-30T04:54:23.139Z,97.06
2022-08-30T04:56:26.390Z,98.97
2022-08-30T04:58:30.540Z,100.00
2022-08-30T05:00:33.641Z,98.68
2022-08-30T05:02:36.604Z,98.13
2022-08-30T05:05:00.187Z,99.86
2022-08-30T05:07:02.932Z,100.00
2022-08-30T05:09:06.023Z,100.00
2022-08-30T05:11:09.802Z,100.00
2022-08-30T05:13:12.801Z,100.00
2022-08-30T05:15:17.108Z,100.00
2022-08-30T05:17:20.199Z,100.00
2022-08-30T05:19:23.656Z,100.00
2022-08-30T05:21:28.602Z,100.00
2022-08-30T05:23:31.414Z,100.00
2022-08-30T05:25:37.850Z,100.00
2022-08-30T05:27:40.608Z,100.00
2022-08-30T05:29:43.955Z,100.00
2022-08-30T05:31:48.114Z,100.00
2022-08-30T05:33:52.032Z,100.00
2022-08-30T05:35:54.899Z,100.00
2022-08-30T05:37:57.684Z,100.00
2022-08-30T05:40:01.335Z,100.00
2022-08-30T05:42:04.894Z,100.00
2022-08-30T05:44:10.081Z,100.00
2022-08-30T05:46:19.406Z,100.00
2022-08-30T05:48:23.805Z,100.00
2022-08-30T05:50:26.558Z,100.00
2022-08-30T05:52:29.312Z,100.00
2022-08-30T05:54:32.113Z,100.00
2022-08-30T05:56:37.403Z,100.00
2022-08-30T05:58:41.040Z,100.00
2022-08-30T06:00:43.798Z,100.00
2022-08-30T06:02:46.902Z,100.00
2022-08-30T06:04:51.118Z,100.00
2022-08-30T06:06:55.325Z,100.00
2022-08-30T06:08:58.489Z,100.00
2022-08-30T06:11:01.277Z,100.00
2022-08-30T06:13:04.181Z,100.00
2022-08-30T06:15:08.341Z,100.00
2022-08-30T06:17:11.644Z,100.00
2022-08-30T06:19:16.267Z,100.00
2022-08-30T06:21:22.102Z,100.00
2022-08-30T06:23:24.898Z,100.00
2022-08-30T06:25:27.645Z,100.00
2022-08-30T06:27:45.065Z,100.00
2022-08-30T06:29:47.864Z,100.00
2022-08-30T06:31:51.383Z,100.00
2022-08-30T06:33:54.716Z,100.00
2022-08-30T06:36:05.721Z,100.00
2022-08-30T06:38:10.278Z,100.00
2022-08-30T06:40:16.876Z,100.00
2022-08-30T06:42:19.911Z,99.75
2022-08-30T06:44:23.001Z,99.12
2022-08-30T06:46:28.101Z,98.70
2022-08-30T06:48:30.934Z,97.03
2022-08-30T06:50:33.761Z,97.99
2022-08-30T06:52:37.265Z,96.84
2022-08-30T06:54:42.570Z,95.26
2022-08-30T06:56:58.182Z,95.31
2022-08-30T06:59:01.982Z,95.80
2022-08-30T07:01:04.877Z,94.41
2022-08-30T07:03:07.896Z,93.96
2022-08-30T07:05:16.736Z,93.98
2022-08-30T07:07:21.731Z,92.76
2022-08-30T07:09:25.113Z,91.73
2022-08-30T07:11:33.115Z,92.10
2022-08-30T07:13:35.994Z,91.45
2022-08-30T07:15:43.574Z,90.79
2022-08-30T07:18:04.147Z,89.89
2022-08-30T07:20:07.972Z,88.46
2022-08-30T07:22:10.731Z,90.00
2022-08-30T07:24:14.396Z,88.99
2022-08-30T07:26:19.558Z,88.08
2022-08-30T07:28:23.795Z,87.62
2022-08-30T07:30:26.674Z,87.14
2022-08-30T07:32:29.674Z,87.06
2022-08-30T07:34:32.780Z,86.19
2022-08-30T07:36:36.628Z,84.84
2022-08-30T07:38:39.724Z,84.52
2022-08-30T07:40:43.040Z,84.46
2022-08-30T07:42:46.039Z,83.10
2022-08-30T07:44:52.679Z,83.17
2022-08-30T07:46:58.850Z,82.52
2022-08-30T07:49:04.151Z,82.30
2022-08-30T07:51:11.685Z,81.67
2022-08-30T07:53:14.887Z,82.18
2022-08-30T07:55:17.969Z,82.17
2022-08-30T07:57:20.741Z,82.01
2022-08-30T07:59:23.687Z,81.92
2022-08-30T08:01:27.895Z,81.29
2022-08-30T08:03:30.890Z,81.85
2022-08-30T08:05:37.128Z,80.58
2022-08-30T08:07:39.898Z,79.79
2022-08-30T08:09:43.029Z,79.37
2022-08-30T08:11:45.801Z,78.69
2022-08-30T08:13:54.331Z,77.72
2022-08-30T08:15:57.402Z,77.72
2022-08-30T08:18:01.715Z,77.63
2022-08-30T08:20:05.499Z,77.31
2022-08-30T08:22:23.452Z,75.40
2022-08-30T08:24:26.628Z,75.24
2022-08-30T08:26:29.430Z,73.82
2022-08-30T08:28:32.513Z,72.96
2022-08-30T08:30:38.116Z,72.17
2022-08-30T08:32:41.710Z,71.50
2022-08-30T08:34:48.254Z,70.77
2022-08-30T08:36:51.513Z,69.41
2022-08-30T08:38:54.623Z,69.02
2022-08-30T08:41:06.237Z,67.93
2022-08-30T08:43:12.996Z,66.40
2022-08-30T08:45:20.891Z,67.77
2022-08-30T08:47:30.929Z,66.43
2022-08-30T08:49:37.207Z,66.14
2022-08-30T08:52:10.648Z,64.89
2022-08-30T08:54:17.584Z,63.82
2022-08-30T08:56:22.723Z,63.15
2022-08-30T08:58:28.553Z,61.61
2022-08-30T09:00:33.352Z,61.89
2022-08-30T09:02:42.892Z,60.62
2022-08-30T09:04:46.334Z,59.60
2022-08-30T09:06:58.357Z,59.59
2022-08-30T09:09:01.177Z,59.43
2022-08-30T09:11:11.111Z,57.63
2022-08-30T09:13:14.429Z,57.97
2022-08-30T09:15:19.973Z,57.21
2022-08-30T09:17:24.568Z,57.18
2022-08-30T09:22:00.180Z,56.31
2022-08-30T09:24:08.655Z,56.16
2022-08-30T09:26:14.727Z,55.75
2022-08-30T09:28:23.630Z,55.72
2022-08-30T09:30:29.611Z,55.46
2022-08-30T09:32:38.980Z,55.33
2022-08-30T09:34:44.568Z,55.60
2022-08-30T09:36:49.753Z,53.87
2022-08-30T09:39:03.025Z,53.07
2022-08-30T09:41:37.795Z,52.52
2022-08-30T09:43:40.589Z,52.63
2022-08-30T09:45:46.593Z,49.81
2022-08-30T09:47:49.505Z,49.00
2022-08-30T09:50:05.518Z,48.91
2022-08-30T09:52:18.015Z,48.82
2022-08-30T09:54:27.537Z,49.28
2022-08-30T09:56:40.736Z,48.21
2022-08-30T09:59:00.563Z,47.46
2022-08-30T10:01:12.066Z,47.12
2022-08-30T10:03:40.276Z,46.68
2022-08-30T10:05:53.579Z,45.03
2022-08-30T10:08:07.994Z,45.24
2022-08-30T10:10:18.822Z,44.49
2022-08-30T10:12:42.204Z,44.48
2022-08-30T10:14:56.530Z,43.73
2022-08-30T10:17:02.981Z,44.11
2022-08-30T10:19:19.419Z,43.37
2022-08-30T10:21:29.314Z,42.89
2022-08-30T10:23:37.218Z,42.05
2022-08-30T10:25:48.789Z,40.87
2022-08-30T10:27:59.070Z,40.47
2022-08-30T10:30:05.905Z,40.46
2022-08-30T10:32:16.397Z,41.04
2022-08-30T10:34:26.237Z,39.54
2022-08-30T10:36:34.217Z,39.25
2022-08-30T10:38:39.272Z,38.92
2022-08-30T10:41:05.575Z,38.29
2022-08-30T10:43:20.369Z,37.97
2022-08-30T10:45:28.185Z,37.90
2022-08-30T10:47:38.391Z,36.30
2022-08-30T10:49:45.618Z,35.59
2022-08-30T10:51:54.759Z,35.48
2022-08-30T10:54:09.275Z,35.37
2022-08-30T10:56:20.501Z,34.93
2022-08-30T10:58:23.615Z,34.44
2022-08-30T11:00:30.902Z,34.97
2022-08-30T11:03:02.106Z,33.44
2022-08-30T11:05:42.262Z,34.44
2022-08-30T11:07:57.376Z,35.56
2022-08-30T11:10:23.610Z,35.75
2022-08-30T11:12:34.726Z,35.53
2022-08-30T11:14:41.173Z,35.13
2022-08-30T11:16:49.672Z,35.27
2022-08-30T11:18:56.318Z,35.13
2022-08-30T11:21:26.010Z,32.88
2022-08-30T11:23:33.306Z,32.38
2022-08-30T11:25:56.866Z,33.11
2022-08-30T11:28:02.118Z,33.98
2022-08-30T11:30:52.668Z,31.58
2022-08-30T11:33:00.666Z,31.88
2022-08-30T11:35:06.289Z,32.30
2022-08-30T11:37:35.943Z,32.13
2022-08-30T11:39:57.376Z,33.46
2022-08-30T11:42:14.008Z,33.03
2022-08-30T11:44:33.821Z,32.28
2022-08-30T11:46:39.685Z,32.28
2022-08-30T11:48:47.045Z,31.92
2022-08-30T11:51:05.469Z,31.56
2022-08-30T11:53:17.198Z,31.36
2022-08-30T11:55:45.211Z,31.12
2022-08-30T11:57:53.900Z,30.85
2022-08-30T12:00:07.507Z,30.70
2022-08-30T12:02:46.415Z,30.78
2022-08-30T12:04:49.470Z,30.97
2022-08-30T12:06:56.893Z,31.69
2022-08-30T12:09:02.144Z,31.33
2022-08-30T12:11:08.999Z,31.65
2022-08-30T12:14:00.791Z,32.17
2022-08-30T12:16:06.530Z,31.75
2022-08-30T12:18:28.350Z,31.65
2022-08-30T12:20:42.162Z,31.57
2022-08-30T12:22:45.526Z,31.17
2022-08-30T12:24:53.731Z,31.27
2022-08-30T12:26:58.220Z,30.73
2022-08-30T12:29:14.479Z,30.52
2022-08-30T12:31:22.943Z,29.50
2022-08-30T12:33:39.507Z,28.95
2022-08-30T12:35:45.366Z,28.34
2022-08-30T12:37:59.096Z,28.78
2022-08-30T12:40:06.157Z,28.77
2022-08-30T12:42:17.697Z,28.77
2022-08-30T12:44:24.306Z,28.84
2022-08-30T12:46:30.220Z,28.37
2022-08-30T12:48:36.372Z,28.59
2022-08-30T12:50:51.613Z,29.01
2022-08-30T12:53:00.874Z,28.81
2022-08-30T12:55:17.593Z,29.43
2022-08-30T12:57:38.535Z,30.29
2022-08-30T12:59:56.843Z,30.91
2022-08-30T13:02:20.326Z,30.28
2022-08-30T13:04:28.188Z,30.71
2022-08-30T13:06:40.327Z,30.77
2022-08-30T13:08:53.173Z,31.06
2022-08-30T13:11:01.531Z,31.17
2022-08-30T13:13:08.742Z,31.30
2022-08-30T13:15:16.477Z,31.51
2022-08-30T13:17:25.623Z,31.18
2022-08-30T13:19:34.134Z,30.03
2022-08-30T13:21:36.938Z,30.41
2022-08-30T13:23:39.746Z,29.96
2022-08-30T13:25:42.542Z,30.07
2022-08-30T13:27:45.351Z,29.45
2022-08-30T13:29:48.193Z,29.54
2022-08-30T13:31:50.994Z,29.72
2022-08-30T13:33:55.802Z,29.52
2022-08-30T13:35:59.402Z,29.26
2022-08-30T13:38:04.107Z,29.93
2022-08-30T13:40:50.174Z,31.36
2022-08-30T13:42:53.120Z,31.74
2022-08-30T13:44:55.899Z,30.50
2022-08-30T13:47:32.324Z,30.87
2022-08-30T13:52:16.355Z,29.56
2022-08-30T13:54:13.932Z,29.62
2022-08-30T13:56:16.977Z,29.34
2022-08-30T13:58:20.144Z,30.10
2022-08-30T14:00:23.508Z,29.92
2022-08-30T14:02:26.789Z,29.70
2022-08-30T14:04:31.282Z,29.57
2022-08-30T14:06:34.868Z,28.37
2022-08-30T14:08:49.797Z,29.18
2022-08-30T14:10:54.867Z,31.12
2022-08-30T14:13:08.068Z,30.45
2022-08-30T14:15:11.597Z,31.08
2022-08-30T14:17:14.568Z,31.09
2022-08-30T14:19:17.789Z,30.17
2022-08-30T14:21:24.698Z,28.98
2022-08-30T14:23:28.614Z,28.71
2022-08-30T14:25:31.443Z,28.92
2022-08-30T14:27:34.367Z,29.64
2022-08-30T14:29:37.102Z,30.37
2022-08-30T14:31:42.140Z,30.47
2022-08-30T14:33:44.977Z,30.06
2022-08-30T14:35:47.786Z,31.07
2022-08-30T14:37:53.349Z,31.10
2022-08-30T14:39:56.264Z,31.37
2022-08-30T14:42:04.361Z,31.78
2022-08-30T14:44:11.021Z,31.21
2022-08-30T14:46:14.132Z,31.05
2022-08-30T14:48:17.077Z,29.85
2022-08-30T14:50:20.221Z,30.51
2022-08-30T14:52:23.056Z,30.39
2022-08-30T14:54:30.269Z,30.10
2022-08-30T14:56:33.043Z,29.87
2022-08-30T14:58:35.807Z,29.63
2022-08-30T15:00:39.454Z,29.68
2022-08-30T15:02:42.370Z,29.69
2022-08-30T15:04:45.698Z,29.42
2022-08-30T15:06:52.920Z,29.79
2022-08-30T15:08:56.771Z,29.78
2022-08-30T15:11:01.415Z,29.77
2022-08-30T15:13:06.305Z,29.66
2022-08-30T15:15:11.365Z,29.55
2022-08-30T15:17:14.302Z,28.77
2022-08-30T15:19:18.263Z,28.37
2022-08-30T15:21:27.047Z,28.69
2022-08-30T15:23:29.850Z,28.69
2022-08-30T15:25:33.063Z,28.52
2022-08-30T15:27:37.636Z,28.11
2022-08-30T15:29:40.449Z,28.06
2022-08-30T15:31:44.561Z,28.34
2022-08-30T15:33:47.425Z,28.86
2022-08-30T15:35:52.035Z,29.28
2022-08-30T15:37:55.040Z,29.71
2022-08-30T15:39:58.272Z,30.45
2022-08-30T15:42:02.034Z,30.81
2022-08-30T15:44:06.592Z,31.15
2022-08-30T15:46:22.969Z,31.86
2022-08-30T15:48:25.889Z,32.38
2022-08-30T15:50:29.339Z,32.57
2022-08-30T15:52:33.464Z,32.85
2022-08-30T15:54:36.318Z,33.68
2022-08-30T15:56:39.128Z,33.08
2022-08-30T15:58:42.594Z,33.34
2022-08-30T16:00:46.919Z,33.37
2022-08-30T16:02:50.680Z,33.42
2022-08-30T16:04:54.801Z,34.00
2022-08-30T16:06:57.609Z,34.42
2022-08-30T16:09:00.426Z,34.56
2022-08-30T16:11:05.786Z,35.74
2022-08-30T16:13:08.642Z,35.84
2022-08-30T16:15:13.004Z,35.63
2022-08-30T16:17:17.235Z,36.26
2022-08-30T16:19:21.281Z,36.16
2022-08-30T16:21:27.059Z,36.15
2022-08-30T16:23:33.456Z,35.57
2022-08-30T16:25:40.666Z,35.41
2022-08-30T16:27:44.149Z,36.30
2022-08-30T16:29:46.918Z,36.67
2022-08-30T16:31:50.042Z,36.86
2022-08-30T16:33:54.469Z,36.93
2022-08-30T16:35:57.877Z,37.19
2022-08-30T16:38:00.755Z,37.98
2022-08-30T16:40:04.454Z,38.24
2022-08-30T16:42:08.432Z,38.05
2022-08-30T16:44:11.482Z,38.24
2022-08-30T16:46:17.254Z,38.25
2022-08-30T16:48:20.115Z,38.37
2022-08-30T16:50:24.281Z,38.39
2022-08-30T16:52:27.214Z,38.56
2022-08-30T16:54:31.905Z,39.49
2022-08-30T16:56:36.730Z,39.71
2022-08-30T16:58:39.857Z,39.24
2022-08-30T17:00:47.490Z,39.66
2022-08-30T17:02:54.385Z,39.43
2022-08-30T17:04:57.270Z,39.17
2022-08-30T17:07:02.567Z,39.64
2022-08-30T17:09:06.069Z,40.41
2022-08-30T17:11:10.078Z,40.87
2022-08-30T17:13:12.989Z,40.67
2022-08-30T17:15:16.681Z,41.53
2022-08-30T17:17:22.130Z,41.54
2022-08-30T17:19:26.731Z,42.04
2022-08-30T17:21:31.288Z,41.65
2022-08-30T17:23:36.123Z,41.53
2022-08-30T17:25:41.611Z,42.21
2022-08-30T17:27:44.632Z,41.77
2022-08-30T17:29:47.491Z,42.19
2022-08-30T17:31:51.486Z,42.35
2022-08-30T17:33:57.991Z,42.37
2022-08-30T17:36:04.553Z,42.61
2022-08-30T17:38:07.792Z,42.89
2022-08-30T17:40:15.602Z,42.64
2022-08-30T17:42:18.485Z,43.14
2022-08-30T17:44:25.892Z,43.28
2022-08-30T17:46:29.318Z,43.84
2022-08-30T17:48:33.277Z,43.87
2022-08-30T17:50:36.357Z,43.89
2022-08-30T17:52:39.114Z,43.39
2022-08-30T17:54:42.616Z,43.76
2022-08-30T17:56:46.720Z,43.63
2022-08-30T17:58:51.084Z,44.67
2022-08-30T18:01:04.352Z,45.40
2022-08-30T18:03:14.380Z,46.06
2022-08-30T18:05:18.202Z,46.57
2022-08-30T18:07:27.798Z,47.67
2022-08-30T18:09:34.034Z,47.82
2022-08-30T18:11:39.447Z,47.90
2022-08-30T18:13:43.680Z,47.61
2022-08-30T18:15:46.557Z,48.66
2022-08-30T18:17:53.577Z,48.88
2022-08-30T18:19:56.526Z,48.88
2022-08-30T18:22:02.699Z,49.32
2022-08-30T18:24:07.300Z,50.64
2022-08-30T18:26:13.198Z,50.62
2022-08-30T18:28:16.027Z,51.45
2022-08-30T18:30:21.096Z,50.80
2022-08-30T18:32:32.727Z,50.29
2022-08-30T18:34:40.323Z,51.61
2022-08-30T18:36:45.593Z,52.23
2022-08-30T18:38:49.681Z,52.82
2022-08-30T18:40:53.145Z,52.55
2022-08-30T18:42:56.046Z,52.76
2022-08-30T18:44:59.970Z,53.29
2022-08-30T18:49:42.154Z,54.61
2022-08-30T18:51:44.952Z,54.25
2022-08-30T18:53:50.131Z,54.62
2022-08-30T18:55:53.882Z,55.08
2022-08-30T18:57:57.576Z,55.36
2022-08-30T19:00:00.297Z,55.49
2022-08-30T19:02:03.630Z,55.51
2022-08-30T19:04:08.051Z,55.66
2022-08-30T19:06:13.500Z,56.02
2022-08-30T19:08:16.457Z,55.45
2022-08-30T19:10:25.209Z,54.76
2022-08-30T19:12:28.950Z,55.72
2022-08-30T19:14:31.787Z,56.68
2022-08-30T19:16:34.751Z,55.41
2022-08-30T19:18:39.696Z,56.34
2022-08-30T19:20:44.736Z,56.39
2022-08-30T19:23:08.927Z,56.63
2022-08-30T19:25:15.469Z,56.54
2022-08-30T19:27:21.695Z,58.20
2022-08-30T19:29:41.084Z,57.23
2022-08-30T19:31:44.751Z,58.17
2022-08-30T19:33:48.609Z,57.60
2022-08-30T19:35:53.657Z,56.63
2022-08-30T19:37:56.609Z,56.60
2022-08-30T19:40:00.742Z,56.58
2022-08-30T19:42:04.142Z,57.18
2022-08-30T19:44:08.191Z,56.57
2022-08-30T19:46:15.369Z,55.96
2022-08-30T19:48:22.228Z,55.52
2022-08-30T19:50:25.432Z,57.19
2022-08-30T19:52:31.194Z,56.62
2022-08-30T19:54:34.761Z,56.84
2022-08-30T19:56:37.644Z,56.57
2022-08-30T19:58:41.401Z,56.86
2022-08-30T20:00:54.131Z,55.25
2022-08-30T20:03:01.528Z,56.35
2022-08-30T20:05:05.695Z,57.26
2022-08-30T20:07:09.113Z,56.05
2022-08-30T20:09:14.222Z,55.98
2022-08-30T20:11:19.222Z,56.34
2022-08-30T20:13:23.701Z,55.37
2022-08-30T20:15:27.050Z,55.68
2022-08-30T20:17:47.571Z,55.00
2022-08-30T20:19:52.948Z,55.17
2022-08-30T20:21:55.748Z,57.01
2022-08-30T20:24:10.830Z,57.67
2022-08-30T20:24:29.506Z,53.99
2022-08-30T20:26:16.095Z,55.33
2022-08-30T20:28:20.562Z,56.44
2022-08-30T20:30:23.607Z,55.77
2022-08-30T20:32:26.698Z,55.07
2022-08-30T20:34:29.681Z,55.37
2022-08-30T20:36:33.600Z,55.76
2022-08-30T20:38:36.759Z,56.01
2022-08-30T20:40:40.782Z,56.47
2022-08-30T20:42:46.375Z,57.40
2022-08-30T20:44:49.304Z,57.82
2022-08-30T20:46:52.207Z,55.95
2022-08-30T20:48:55.006Z,57.03
2022-08-30T20:50:57.829Z,57.41
2022-08-30T20:53:00.655Z,57.39
2022-08-30T20:55:04.563Z,56.31
2022-08-30T20:57:07.856Z,56.87
2022-08-30T20:59:12.075Z,57.41
2022-08-30T21:01:15.860Z,56.90
2022-08-30T21:03:26.130Z,56.68
2022-08-30T21:05:30.774Z,57.84
2022-08-30T21:07:33.592Z,58.05
2022-08-30T21:09:37.860Z,57.89
2022-08-30T21:11:43.539Z,57.04
2022-08-30T21:13:48.376Z,57.57
2022-08-30T21:15:54.602Z,58.93
2022-08-30T21:17:57.767Z,57.95
2022-08-30T21:20:00.662Z,58.96
2022-08-30T21:22:03.747Z,57.99
2022-08-30T21:24:09.909Z,58.65
2022-08-30T21:26:12.743Z,56.62
2022-08-30T21:28:15.820Z,57.37
2022-08-30T21:30:20.530Z,57.97
2022-08-30T21:32:24.939Z,58.98
2022-08-30T21:34:27.866Z,58.77
2022-08-30T21:36:51.455Z,59.30
2022-08-30T21:39:00.472Z,57.40
2022-08-30T21:41:03.770Z,57.69
2022-08-30T21:43:07.526Z,58.21
2022-08-30T21:45:12.007Z,58.85
2022-08-30T21:47:14.852Z,55.86
2022-08-30T21:49:27.627Z,59.83
2022-08-30T21:51:34.119Z,60.81
2022-08-30T21:53:37.759Z,60.18
2022-08-30T21:55:40.828Z,60.38
2022-08-30T21:57:46.631Z,58.49
2022-08-30T21:59:49.490Z,59.73
2022-08-30T22:01:52.470Z,59.83
2022-08-30T22:03:57.682Z,59.33
2022-08-30T22:06:01.970Z,60.10
2022-08-30T22:08:05.028Z,60.96
2022-08-30T22:10:11.079Z,60.04
2022-08-30T22:12:14.094Z,59.46
2022-08-30T22:14:17.516Z,61.58
2022-08-30T22:16:21.003Z,58.81
2022-08-30T22:18:23.946Z,62.18
2022-08-30T22:20:27.548Z,61.30
2022-08-30T22:22:35.008Z,60.47
2022-08-30T22:24:39.508Z,60.83
2022-08-30T22:26:43.387Z,61.35
2022-08-30T22:28:46.707Z,59.83
2022-08-30T22:30:49.819Z,57.99
2022-08-30T22:32:52.851Z,63.24
2022-08-30T22:34:57.495Z,62.08
2022-08-30T22:37:00.761Z,61.58
2022-08-30T22:39:07.119Z,62.21
2022-08-30T22:41:12.422Z,62.13
2022-08-30T22:43:15.812Z,61.04
2022-08-30T22:45:19.289Z,60.53
2022-08-30T22:47:22.274Z,61.61
2022-08-30T22:49:26.297Z,61.43
2022-08-30T22:51:29.206Z,60.83
2022-08-30T22:53:32.483Z,61.83
2022-08-30T22:55:40.372Z,60.12
2022-08-30T22:57:43.359Z,60.16
2022-08-30T22:59:46.926Z,57.89
2022-08-30T23:01:50.020Z,60.15
2022-08-30T23:03:53.904Z,58.44
2022-08-30T23:05:56.935Z,60.42
2022-08-30T23:08:00.063Z,62.60
2022-08-30T23:10:03.665Z,62.18
2022-08-30T23:12:08.390Z,59.50
2022-08-30T23:14:11.367Z,59.28
2022-08-30T23:16:16.253Z,62.68
2022-08-30T23:18:19.989Z,60.80
2022-08-30T23:20:24.432Z,61.28
2022-08-30T23:22:27.678Z,62.05
2022-08-30T23:24:49.156Z,60.67
2022-08-30T23:27:09.607Z,62.29
2022-08-30T23:29:31.569Z,61.95
2022-08-30T23:31:52.044Z,60.95
2022-08-30T23:34:17.518Z,60.83
2022-08-30T23:36:38.094Z,62.24
2022-08-30T23:38:58.526Z,61.94
2022-08-30T23:41:18.986Z,62.36
2022-08-30T23:43:39.209Z,63.42
2022-08-30T23:46:01.406Z,64.63
2022-08-30T23:48:21.771Z,64.54
2022-08-30T23:50:42.078Z,64.21
2022-08-30T23:53:02.150Z,64.69
2022-08-30T23:55:23.650Z,65.71
2022-08-30T23:57:44.827Z,68.24
